sensor_id;sensor_type;location;lat;lon;timestamp;temperature;humidity
21023;DHT22;10669;51.076;3.714;2023-03-01T00:01:34;2.10;1.00
21023;DHT22;10669;51.076;3.714;2023-03-01T00:04:01;2.10;1.00
21023;DHT22;10669;51.076;3.714;2023-03-01T00:06:27;2.20;93.80
21023;DHT22;10669;51.076;3.714;2023-03-01T00:08:54;2.50;99.90
21023;DHT22;10669;51.076;3.714;2023-03-01T00:11:22;2.60;1.00
21023;DHT22;10669;51.076;3.714;2023-03-01T00:13:50;2.50;1.00
21023;DHT22;10669;51.076;3.714;2023-03-01T00:18:56;2.40;99.90
21023;DHT22;10669;51.076;3.714;2023-03-01T00:21:23;2.30;99.90
21023;DHT22;10669;51.076;3.714;2023-03-01T00:23:53;2.30;1.00
21023;DHT22;10669;51.076;3.714;2023-03-01T00:26:19;2.40;1.00
21023;DHT22;10669;51.076;3.714;2023-03-01T00:28:46;2.30;1.00
21023;DHT22;10669;51.076;3.714;2023-03-01T00:31:13;2.20;99.90
21023;DHT22;10669;51.076;3.714;2023-03-01T00:33:40;2.20;1.00
21023;DHT22;10669;51.076;3.714;2023-03-01T00:36:13;2.20;1.00
21023;DHT22;10669;51.076;3.714;2023-03-01T00:38:42;2.00;1.00
21023;DHT22;10669;51.076;3.714;2023-03-01T00:43:39;1.90;1.00
21023;DHT22;10669;51.076;3.714;2023-03-01T00:46:07;1.80;99.90
21023;DHT22;10669;51.076;3.714;2023-03-01T00:48:34;2.20;99.90
21023;DHT22;10669;51.076;3.714;2023-03-01T00:51:12;2.20;1.00
21023;DHT22;10669;51.076;3.714;2023-03-01T00:53:38;2.20;1.00
21023;DHT22;10669;51.076;3.714;2023-03-01T00:56:05;2.20;1.00
21023;DHT22;10669;51.076;3.714;2023-03-01T00:58:31;1.90;1.00
21023;DHT22;10669;51.076;3.714;2023-03-01T01:00:57;2.00;99.90
21023;DHT22;10669;51.076;3.714;2023-03-01T01:03:24;2.40;1.00
21023;DHT22;10669;51.076;3.714;2023-03-01T01:05:50;2.30;1.00
21023;DHT22;10669;51.076;3.714;2023-03-01T01:08:20;2.10;1.00
21023;DHT22;10669;51.076;3.714;2023-03-01T01:13:17;2.30;97.40
21023;DHT22;10669;51.076;3.714;2023-03-01T01:15:43;2.30;99.90
21023;DHT22;10669;51.076;3.714;2023-03-01T01:18:12;2.10;99.90
21023;DHT22;10669;51.076;3.714;2023-03-01T01:20:39;1.90;99.90
21023;DHT22;10669;51.076;3.714;2023-03-01T01:23:09;2.00;99.90
21023;DHT22;10669;51.076;3.714;2023-03-01T01:25:35;2.20;99.90
21023;DHT22;10669;51.076;3.714;2023-03-01T01:28:02;2.10;99.90
21023;DHT22;10669;51.076;3.714;2023-03-01T01:33:06;1.90;1.00
21023;DHT22;10669;51.076;3.714;2023-03-01T01:35:46;2.00;1.00
21023;DHT22;10669;51.076;3.714;2023-03-01T01:38:13;2.00;1.00
21023;DHT22;10669;51.076;3.714;2023-03-01T01:40:45;2.10;1.00
21023;DHT22;10669;51.076;3.714;2023-03-01T01:43:16;1.90;1.00
21023;DHT22;10669;51.076;3.714;2023-03-01T01:45:45;1.80;1.00
21023;DHT22;10669;51.076;3.714;2023-03-01T01:48:12;1.80;1.00
21023;DHT22;10669;51.076;3.714;2023-03-01T01:50:40;2.00;1.00
21023;DHT22;10669;51.076;3.714;2023-03-01T01:53:08;2.10;1.00
21023;DHT22;10669;51.076;3.714;2023-03-01T01:55:35;1.80;1.00
21023;DHT22;10669;51.076;3.714;2023-03-01T01:58:05;1.90;1.00
21023;DHT22;10669;51.076;3.714;2023-03-01T02:00:35;1.90;1.00
21023;DHT22;10669;51.076;3.714;2023-03-01T02:03:10;1.90;1.00
21023;DHT22;10669;51.076;3.714;2023-03-01T02:05:42;1.80;1.00
21023;DHT22;10669;51.076;3.714;2023-03-01T02:08:13;1.90;1.00
21023;DHT22;10669;51.076;3.714;2023-03-01T02:10:40;1.80;1.00
21023;DHT22;10669;51.076;3.714;2023-03-01T02:13:09;1.90;1.00
21023;DHT22;10669;51.076;3.714;2023-03-01T02:15:37;1.80;1.00
21023;DHT22;10669;51.076;3.714;2023-03-01T02:18:03;1.80;1.00
21023;DHT22;10669;51.076;3.714;2023-03-01T02:23:03;1.50;1.00
21023;DHT22;10669;51.076;3.714;2023-03-01T02:25:47;1.40;1.00
21023;DHT22;10669;51.076;3.714;2023-03-01T02:30:43;1.40;1.00
21023;DHT22;10669;51.076;3.714;2023-03-01T02:36:12;1.20;1.00
21023;DHT22;10669;51.076;3.714;2023-03-01T02:38:41;1.40;1.00
21023;DHT22;10669;51.076;3.714;2023-03-01T02:41:08;1.50;1.00
21023;DHT22;10669;51.076;3.714;2023-03-01T02:43:35;1.60;1.00
21023;DHT22;10669;51.076;3.714;2023-03-01T02:46:05;1.50;1.00
21023;DHT22;10669;51.076;3.714;2023-03-01T02:48:48;1.40;1.00
21023;DHT22;10669;51.076;3.714;2023-03-01T02:56:39;1.70;1.00
21023;DHT22;10669;51.076;3.714;2023-03-01T03:01:35;1.60;1.00
21023;DHT22;10669;51.076;3.714;2023-03-01T03:04:12;1.60;1.00
21023;DHT22;10669;51.076;3.714;2023-03-01T03:06:42;1.70;1.00
21023;DHT22;10669;51.076;3.714;2023-03-01T03:09:09;1.60;1.00
21023;DHT22;10669;51.076;3.714;2023-03-01T03:11:34;1.60;1.00
21023;DHT22;10669;51.076;3.714;2023-03-01T03:14:03;1.50;1.00
21023;DHT22;10669;51.076;3.714;2023-03-01T03:16:30;1.50;1.00
21023;DHT22;10669;51.076;3.714;2023-03-01T03:18:56;1.50;1.00
21023;DHT22;10669;51.076;3.714;2023-03-01T03:21:34;1.50;1.00
21023;DHT22;10669;51.076;3.714;2023-03-01T03:24:03;1.70;1.00
21023;DHT22;10669;51.076;3.714;2023-03-01T03:26:32;1.70;1.00
21023;DHT22;10669;51.076;3.714;2023-03-01T03:29:01;1.60;1.00
21023;DHT22;10669;51.076;3.714;2023-03-01T03:31:28;1.50;1.00
21023;DHT22;10669;51.076;3.714;2023-03-01T03:33:57;1.40;1.00
21023;DHT22;10669;51.076;3.714;2023-03-01T03:36:26;1.40;1.00
21023;DHT22;10669;51.076;3.714;2023-03-01T03:38:53;1.40;1.00
21023;DHT22;10669;51.076;3.714;2023-03-01T03:41:19;1.40;1.00
21023;DHT22;10669;51.076;3.714;2023-03-01T03:43:45;1.10;1.00
21023;DHT22;10669;51.076;3.714;2023-03-01T03:46:12;1.00;1.00
21023;DHT22;10669;51.076;3.714;2023-03-01T03:48:41;1.10;1.00
21023;DHT22;10669;51.076;3.714;2023-03-01T03:51:12;1.10;1.00
21023;DHT22;10669;51.076;3.714;2023-03-01T03:53:41;0.90;1.00
21023;DHT22;10669;51.076;3.714;2023-03-01T03:56:07;0.90;1.00
21023;DHT22;10669;51.076;3.714;2023-03-01T03:58:32;1.00;1.00
21023;DHT22;10669;51.076;3.714;2023-03-01T04:00:59;1.20;1.00
21023;DHT22;10669;51.076;3.714;2023-03-01T04:05:56;1.10;1.00
21023;DHT22;10669;51.076;3.714;2023-03-01T04:08:23;1.20;1.00
21023;DHT22;10669;51.076;3.714;2023-03-01T04:10:51;1.20;1.00
21023;DHT22;10669;51.076;3.714;2023-03-01T04:13:21;1.30;1.00
21023;DHT22;10669;51.076;3.714;2023-03-01T04:15:50;1.20;1.00
21023;DHT22;10669;51.076;3.714;2023-03-01T04:20:46;1.20;1.00
21023;DHT22;10669;51.076;3.714;2023-03-01T04:25:56;0.80;1.00
21023;DHT22;10669;51.076;3.714;2023-03-01T04:28:34;0.70;1.00
21023;DHT22;10669;51.076;3.714;2023-03-01T04:31:12;0.70;1.00
21023;DHT22;10669;51.076;3.714;2023-03-01T04:33:42;0.70;1.00
21023;DHT22;10669;51.076;3.714;2023-03-01T04:36:10;0.60;1.00
21023;DHT22;10669;51.076;3.714;2023-03-01T04:38:36;0.60;1.00
21023;DHT22;10669;51.076;3.714;2023-03-01T04:41:04;0.60;1.00
21023;DHT22;10669;51.076;3.714;2023-03-01T04:48:36;0.80;1.00
21023;DHT22;10669;51.076;3.714;2023-03-01T04:51:02;0.50;1.00
21023;DHT22;10669;51.076;3.714;2023-03-01T04:53:28;0.70;1.00
21023;DHT22;10669;51.076;3.714;2023-03-01T04:55:58;0.70;1.00
21023;DHT22;10669;51.076;3.714;2023-03-01T05:00:53;0.70;1.00
21023;DHT22;10669;51.076;3.714;2023-03-01T05:03:21;0.80;1.00
21023;DHT22;10669;51.076;3.714;2023-03-01T05:05:50;0.80;1.00
21023;DHT22;10669;51.076;3.714;2023-03-01T05:10:52;0.90;1.00
21023;DHT22;10669;51.076;3.714;2023-03-01T05:13:19;0.70;1.00
21023;DHT22;10669;51.076;3.714;2023-03-01T05:15:48;0.80;1.00
21023;DHT22;10669;51.076;3.714;2023-03-01T05:18:16;0.60;1.00
21023;DHT22;10669;51.076;3.714;2023-03-01T05:20:44;0.50;1.00
21023;DHT22;10669;51.076;3.714;2023-03-01T05:23:15;0.50;1.00
21023;DHT22;10669;51.076;3.714;2023-03-01T05:25:49;0.40;1.00
21023;DHT22;10669;51.076;3.714;2023-03-01T05:28:18;0.60;1.00
21023;DHT22;10669;51.076;3.714;2023-03-01T05:30:43;0.70;1.00
21023;DHT22;10669;51.076;3.714;2023-03-01T05:33:11;0.80;1.00
21023;DHT22;10669;51.076;3.714;2023-03-01T05:35:40;0.80;1.00
21023;DHT22;10669;51.076;3.714;2023-03-01T05:38:08;0.80;1.00
21023;DHT22;10669;51.076;3.714;2023-03-01T05:40:34;0.80;1.00
21023;DHT22;10669;51.076;3.714;2023-03-01T05:43:03;0.80;1.00
21023;DHT22;10669;51.076;3.714;2023-03-01T05:45:31;0.80;1.00
21023;DHT22;10669;51.076;3.714;2023-03-01T05:48:02;0.80;1.00
21023;DHT22;10669;51.076;3.714;2023-03-01T05:50:36;0.80;1.00
21023;DHT22;10669;51.076;3.714;2023-03-01T05:53:15;0.70;1.00
21023;DHT22;10669;51.076;3.714;2023-03-01T05:55:41;0.70;1.00
21023;DHT22;10669;51.076;3.714;2023-03-01T05:58:12;0.70;1.00
21023;DHT22;10669;51.076;3.714;2023-03-01T06:00:39;0.70;1.00
21023;DHT22;10669;51.076;3.714;2023-03-01T06:03:06;0.70;1.00
21023;DHT22;10669;51.076;3.714;2023-03-01T06:05:33;0.70;1.00
21023;DHT22;10669;51.076;3.714;2023-03-01T06:08:00;0.70;1.00
21023;DHT22;10669;51.076;3.714;2023-03-01T06:10:26;0.70;1.00
21023;DHT22;10669;51.076;3.714;2023-03-01T06:12:52;0.60;1.00
21023;DHT22;10669;51.076;3.714;2023-03-01T06:15:22;0.70;1.00
21023;DHT22;10669;51.076;3.714;2023-03-01T06:20:25;0.60;1.00
21023;DHT22;10669;51.076;3.714;2023-03-01T06:22:53;0.60;1.00
21023;DHT22;10669;51.076;3.714;2023-03-01T06:25:22;0.50;1.00
21023;DHT22;10669;51.076;3.714;2023-03-01T06:27:52;0.50;1.00
21023;DHT22;10669;51.076;3.714;2023-03-01T06:30:18;0.60;1.00
21023;DHT22;10669;51.076;3.714;2023-03-01T06:32:45;0.60;1.00
21023;DHT22;10669;51.076;3.714;2023-03-01T06:35:12;0.50;1.00
21023;DHT22;10669;51.076;3.714;2023-03-01T06:37:37;0.60;1.00
21023;DHT22;10669;51.076;3.714;2023-03-01T06:42:35;0.60;1.00
21023;DHT22;10669;51.076;3.714;2023-03-01T06:45:03;0.50;1.00
21023;DHT22;10669;51.076;3.714;2023-03-01T06:47:30;0.60;1.00
21023;DHT22;10669;51.076;3.714;2023-03-01T06:49:59;0.60;1.00
21023;DHT22;10669;51.076;3.714;2023-03-01T06:52:26;0.60;1.00
21023;DHT22;10669;51.076;3.714;2023-03-01T06:54:52;0.70;1.00
21023;DHT22;10669;51.076;3.714;2023-03-01T06:57:20;0.70;1.00
21023;DHT22;10669;51.076;3.714;2023-03-01T06:59:47;0.70;1.00
21023;DHT22;10669;51.076;3.714;2023-03-01T07:02:15;0.80;1.00
21023;DHT22;10669;51.076;3.714;2023-03-01T07:04:51;0.80;1.00
21023;DHT22;10669;51.076;3.714;2023-03-01T07:07:17;0.80;1.00
21023;DHT22;10669;51.076;3.714;2023-03-01T07:09:45;1.00;1.00
21023;DHT22;10669;51.076;3.714;2023-03-01T07:12:21;0.90;1.00
21023;DHT22;10669;51.076;3.714;2023-03-01T07:14:47;1.00;1.00
21023;DHT22;10669;51.076;3.714;2023-03-01T07:17:15;1.00;1.00
21023;DHT22;10669;51.076;3.714;2023-03-01T07:19:42;1.00;1.00
21023;DHT22;10669;51.076;3.714;2023-03-01T07:22:08;1.10;1.00
21023;DHT22;10669;51.076;3.714;2023-03-01T07:24:37;1.20;1.00
21023;DHT22;10669;51.076;3.714;2023-03-01T07:27:03;1.20;1.00
21023;DHT22;10669;51.076;3.714;2023-03-01T07:29:31;1.30;1.00
21023;DHT22;10669;51.076;3.714;2023-03-01T07:31:58;1.30;1.00
21023;DHT22;10669;51.076;3.714;2023-03-01T07:34:28;1.30;1.00
21023;DHT22;10669;51.076;3.714;2023-03-01T07:36:59;1.20;1.00
21023;DHT22;10669;51.076;3.714;2023-03-01T07:39:26;1.30;1.00
21023;DHT22;10669;51.076;3.714;2023-03-01T07:42:01;1.40;1.00
21023;DHT22;10669;51.076;3.714;2023-03-01T07:44:27;1.40;1.00
21023;DHT22;10669;51.076;3.714;2023-03-01T07:46:53;1.40;1.00
21023;DHT22;10669;51.076;3.714;2023-03-01T07:49:24;1.40;1.00
21023;DHT22;10669;51.076;3.714;2023-03-01T07:51:54;1.40;1.00
21023;DHT22;10669;51.076;3.714;2023-03-01T07:54:23;1.50;1.00
21023;DHT22;10669;51.076;3.714;2023-03-01T07:56:50;1.50;1.00
21023;DHT22;10669;51.076;3.714;2023-03-01T07:59:16;1.50;1.00
21023;DHT22;10669;51.076;3.714;2023-03-01T08:01:43;1.60;1.00
21023;DHT22;10669;51.076;3.714;2023-03-01T08:04:10;1.60;1.00
21023;DHT22;10669;51.076;3.714;2023-03-01T08:06:36;1.60;1.00
21023;DHT22;10669;51.076;3.714;2023-03-01T08:09:02;1.60;1.00
21023;DHT22;10669;51.076;3.714;2023-03-01T08:11:31;1.60;1.00
21023;DHT22;10669;51.076;3.714;2023-03-01T08:13:56;1.70;1.00
21023;DHT22;10669;51.076;3.714;2023-03-01T08:16:22;1.70;1.00
21023;DHT22;10669;51.076;3.714;2023-03-01T08:18:48;1.70;1.00
21023;DHT22;10669;51.076;3.714;2023-03-01T08:21:15;1.80;1.00
21023;DHT22;10669;51.076;3.714;2023-03-01T08:23:40;1.80;1.00
21023;DHT22;10669;51.076;3.714;2023-03-01T08:28:32;1.90;1.00
21023;DHT22;10669;51.076;3.714;2023-03-01T08:30:57;2.00;1.00
21023;DHT22;10669;51.076;3.714;2023-03-01T08:33:23;2.00;1.00
21023;DHT22;10669;51.076;3.714;2023-03-01T08:35:49;2.00;1.00
21023;DHT22;10669;51.076;3.714;2023-03-01T08:38:16;2.10;1.00
21023;DHT22;10669;51.076;3.714;2023-03-01T08:40:42;2.30;1.00
21023;DHT22;10669;51.076;3.714;2023-03-01T08:43:08;2.20;1.00
21023;DHT22;10669;51.076;3.714;2023-03-01T08:45:35;2.20;99.90
21023;DHT22;10669;51.076;3.714;2023-03-01T08:48:00;2.20;1.00
21023;DHT22;10669;51.076;3.714;2023-03-01T08:50:26;2.20;1.00
21023;DHT22;10669;51.076;3.714;2023-03-01T08:52:51;2.20;99.90
21023;DHT22;10669;51.076;3.714;2023-03-01T08:55:19;2.30;99.90
21023;DHT22;10669;51.076;3.714;2023-03-01T08:57:44;2.30;99.90
21023;DHT22;10669;51.076;3.714;2023-03-01T09:00:11;2.40;99.90
21023;DHT22;10669;51.076;3.714;2023-03-01T09:02:36;2.50;99.90
21023;DHT22;10669;51.076;3.714;2023-03-01T09:05:02;2.50;99.90
21023;DHT22;10669;51.076;3.714;2023-03-01T09:07:28;2.60;15.40
21023;DHT22;10669;51.076;3.714;2023-03-01T09:09:53;2.70;35.70
21023;DHT22;10669;51.076;3.714;2023-03-01T09:12:20;2.60;94.20
21023;DHT22;10669;51.076;3.714;2023-03-01T09:14:46;2.60;1.00
21023;DHT22;10669;51.076;3.714;2023-03-01T09:17:12;2.60;1.00
21023;DHT22;10669;51.076;3.714;2023-03-01T09:19:39;2.60;1.00
21023;DHT22;10669;51.076;3.714;2023-03-01T09:22:04;2.80;99.90
21023;DHT22;10669;51.076;3.714;2023-03-01T09:24:31;2.90;1.00
21023;DHT22;10669;51.076;3.714;2023-03-01T09:26:56;2.80;1.00
21023;DHT22;10669;51.076;3.714;2023-03-01T09:29:22;2.90;1.00
21023;DHT22;10669;51.076;3.714;2023-03-01T09:31:48;3.10;99.90
21023;DHT22;10669;51.076;3.714;2023-03-01T09:34:13;3.10;99.90
21023;DHT22;10669;51.076;3.714;2023-03-01T09:36:45;3.10;1.00
21023;DHT22;10669;51.076;3.714;2023-03-01T09:39:11;3.10;1.00
21023;DHT22;10669;51.076;3.714;2023-03-01T09:41:50;3.20;1.00
21023;DHT22;10669;51.076;3.714;2023-03-01T09:46:48;3.20;1.00
21023;DHT22;10669;51.076;3.714;2023-03-01T09:49:18;3.20;99.90
21023;DHT22;10669;51.076;3.714;2023-03-01T09:51:49;3.30;1.00
21023;DHT22;10669;51.076;3.714;2023-03-01T09:54:18;3.30;1.00
21023;DHT22;10669;51.076;3.714;2023-03-01T09:56:46;3.30;1.00
21023;DHT22;10669;51.076;3.714;2023-03-01T10:02:05;3.40;94.20
21023;DHT22;10669;51.076;3.714;2023-03-01T10:09:52;3.70;99.90
21023;DHT22;10669;51.076;3.714;2023-03-01T10:12:18;3.90;1.00
21023;DHT22;10669;51.076;3.714;2023-03-01T10:17:24;3.80;99.90
21023;DHT22;10669;51.076;3.714;2023-03-01T10:19:51;3.90;99.90
21023;DHT22;10669;51.076;3.714;2023-03-01T10:22:24;4.00;1.00
21023;DHT22;10669;51.076;3.714;2023-03-01T10:24:53;4.00;41.70
21023;DHT22;10669;51.076;3.714;2023-03-01T10:32:29;4.20;1.00
21023;DHT22;10669;51.076;3.714;2023-03-01T10:34:55;4.20;1.00
21023;DHT22;10669;51.076;3.714;2023-03-01T10:37:22;4.10;1.00
21023;DHT22;10669;51.076;3.714;2023-03-01T10:42:31;4.40;1.00
21023;DHT22;10669;51.076;3.714;2023-03-01T10:45:14;4.50;99.90
21023;DHT22;10669;51.076;3.714;2023-03-01T10:47:40;4.60;1.00
21023;DHT22;10669;51.076;3.714;2023-03-01T10:50:08;4.50;98.70
21023;DHT22;10669;51.076;3.714;2023-03-01T10:52:42;4.60;1.00
21023;DHT22;10669;51.076;3.714;2023-03-01T10:55:23;4.70;1.00
21023;DHT22;10669;51.076;3.714;2023-03-01T10:57:49;4.90;24.50
21023;DHT22;10669;51.076;3.714;2023-03-01T11:02:49;4.90;16.20
21023;DHT22;10669;51.076;3.714;2023-03-01T11:05:19;4.80;1.00
21023;DHT22;10669;51.076;3.714;2023-03-01T11:07:49;4.70;1.00
21023;DHT22;10669;51.076;3.714;2023-03-01T11:10:19;4.60;99.90
21023;DHT22;10669;51.076;3.714;2023-03-01T11:12:45;4.70;99.90
21023;DHT22;10669;51.076;3.714;2023-03-01T11:15:25;4.60;99.90
21023;DHT22;10669;51.076;3.714;2023-03-01T11:17:51;4.80;1.00
21023;DHT22;10669;51.076;3.714;2023-03-01T11:20:28;4.80;99.90
21023;DHT22;10669;51.076;3.714;2023-03-01T11:22:55;4.80;1.00
21023;DHT22;10669;51.076;3.714;2023-03-01T11:25:26;4.90;99.90
21023;DHT22;10669;51.076;3.714;2023-03-01T11:27:52;5.00;1.00
21023;DHT22;10669;51.076;3.714;2023-03-01T11:30:28;5.00;1.00
21023;DHT22;10669;51.076;3.714;2023-03-01T11:33:03;5.00;1.00
21023;DHT22;10669;51.076;3.714;2023-03-01T11:35:30;5.20;1.00
21023;DHT22;10669;51.076;3.714;2023-03-01T11:43:29;5.40;1.00
21023;DHT22;10669;51.076;3.714;2023-03-01T11:51:01;5.70;1.00
21023;DHT22;10669;51.076;3.714;2023-03-01T11:55:57;5.70;1.00
21023;DHT22;10669;51.076;3.714;2023-03-01T12:03:38;6.00;1.00
21023;DHT22;10669;51.076;3.714;2023-03-01T12:06:12;5.90;1.00
21023;DHT22;10669;51.076;3.714;2023-03-01T12:09:30;5.90;99.90
21023;DHT22;10669;51.076;3.714;2023-03-01T12:19:45;5.90;1.00
21023;DHT22;10669;51.076;3.714;2023-03-01T12:35:31;6.20;1.00
21023;DHT22;10669;51.076;3.714;2023-03-01T12:45:54;6.30;1.00
21023;DHT22;10669;51.076;3.714;2023-03-01T12:50:54;6.20;1.00
21023;DHT22;10669;51.076;3.714;2023-03-01T12:53:25;6.30;1.00
21023;DHT22;10669;51.076;3.714;2023-03-01T12:55:52;6.30;1.00
21023;DHT22;10669;51.076;3.714;2023-03-01T12:58:29;6.30;1.00
21023;DHT22;10669;51.076;3.714;2023-03-01T13:06:29;6.50;1.00
21023;DHT22;10669;51.076;3.714;2023-03-01T13:11:42;6.40;99.90
21023;DHT22;10669;51.076;3.714;2023-03-01T13:16:46;6.70;1.00
21023;DHT22;10669;51.076;3.714;2023-03-01T13:19:18;6.70;99.90
21023;DHT22;10669;51.076;3.714;2023-03-01T13:21:45;6.60;1.00
21023;DHT22;10669;51.076;3.714;2023-03-01T13:24:28;6.60;99.90
21023;DHT22;10669;51.076;3.714;2023-03-01T13:29:48;6.60;1.00
21023;DHT22;10669;51.076;3.714;2023-03-01T13:32:22;6.80;1.00
21023;DHT22;10669;51.076;3.714;2023-03-01T13:34:55;6.80;1.00
21023;DHT22;10669;51.076;3.714;2023-03-01T13:37:28;6.60;1.00
21023;DHT22;10669;51.076;3.714;2023-03-01T13:42:38;7.00;1.00
21023;DHT22;10669;51.076;3.714;2023-03-01T13:45:47;7.20;1.00
21023;DHT22;10669;51.076;3.714;2023-03-01T13:50:42;7.20;1.00
21023;DHT22;10669;51.076;3.714;2023-03-01T13:53:10;7.20;1.00
21023;DHT22;10669;51.076;3.714;2023-03-01T13:58:16;7.10;1.00
21023;DHT22;10669;51.076;3.714;2023-03-01T14:00:43;7.00;1.00
21023;DHT22;10669;51.076;3.714;2023-03-01T14:03:10;7.10;1.00
21023;DHT22;10669;51.076;3.714;2023-03-01T14:05:37;7.10;1.00
21023;DHT22;10669;51.076;3.714;2023-03-01T14:08:03;7.20;1.00
21023;DHT22;10669;51.076;3.714;2023-03-01T14:10:32;7.20;1.00
21023;DHT22;10669;51.076;3.714;2023-03-01T14:13:05;7.20;1.00
21023;DHT22;10669;51.076;3.714;2023-03-01T14:15:34;7.20;1.00
21023;DHT22;10669;51.076;3.714;2023-03-01T14:20:55;7.20;1.00
21023;DHT22;10669;51.076;3.714;2023-03-01T14:23:23;7.30;1.00
21023;DHT22;10669;51.076;3.714;2023-03-01T14:25:53;7.30;1.00
21023;DHT22;10669;51.076;3.714;2023-03-01T14:28:20;7.40;1.00
21023;DHT22;10669;51.076;3.714;2023-03-01T14:30:48;7.30;1.00
21023;DHT22;10669;51.076;3.714;2023-03-01T14:36:25;7.20;1.00
21023;DHT22;10669;51.076;3.714;2023-03-01T14:38:41;7.30;1.00
21023;DHT22;10669;51.076;3.714;2023-03-01T14:41:14;7.40;1.00
21023;DHT22;10669;51.076;3.714;2023-03-01T14:43:44;7.30;99.90
21023;DHT22;10669;51.076;3.714;2023-03-01T14:46:17;7.10;1.00
21023;DHT22;10669;51.076;3.714;2023-03-01T14:48:42;7.20;99.90
21023;DHT22;10669;51.076;3.714;2023-03-01T14:51:09;7.20;99.90
21023;DHT22;10669;51.076;3.714;2023-03-01T14:53:38;7.20;1.00
21023;DHT22;10669;51.076;3.714;2023-03-01T14:56:04;7.40;99.90
21023;DHT22;10669;51.076;3.714;2023-03-01T14:58:31;7.70;99.90
21023;DHT22;10669;51.076;3.714;2023-03-01T15:00:59;7.90;99.90
21023;DHT22;10669;51.076;3.714;2023-03-01T15:03:27;7.60;99.90
21023;DHT22;10669;51.076;3.714;2023-03-01T15:05:56;7.90;99.90
21023;DHT22;10669;51.076;3.714;2023-03-01T15:08:25;8.00;99.90
21023;DHT22;10669;51.076;3.714;2023-03-01T15:10:58;8.10;99.90
21023;DHT22;10669;51.076;3.714;2023-03-01T15:13:25;8.30;85.30
21023;DHT22;10669;51.076;3.714;2023-03-01T15:15:53;8.60;16.70
21023;DHT22;10669;51.076;3.714;2023-03-01T15:18:26;9.10;1.00
21023;DHT22;10669;51.076;3.714;2023-03-01T15:20:52;9.00;1.00
21023;DHT22;10669;51.076;3.714;2023-03-01T15:23:23;8.40;1.00
21023;DHT22;10669;51.076;3.714;2023-03-01T15:25:51;8.10;1.00
21023;DHT22;10669;51.076;3.714;2023-03-01T15:28:28;8.40;1.00
21023;DHT22;10669;51.076;3.714;2023-03-01T15:31:17;8.60;1.00
21023;DHT22;10669;51.076;3.714;2023-03-01T15:33:43;8.30;1.00
21023;DHT22;10669;51.076;3.714;2023-03-01T15:38:58;8.00;1.00
21023;DHT22;10669;51.076;3.714;2023-03-01T15:41:25;8.00;1.00
21023;DHT22;10669;51.076;3.714;2023-03-01T15:43:53;7.70;32.90
21023;DHT22;10669;51.076;3.714;2023-03-01T15:46:23;7.80;99.90
21023;DHT22;10669;51.076;3.714;2023-03-01T15:48:53;7.90;48.40
21023;DHT22;10669;51.076;3.714;2023-03-01T15:51:22;7.90;1.90
21023;DHT22;10669;51.076;3.714;2023-03-01T15:53:50;8.00;91.20
21023;DHT22;10669;51.076;3.714;2023-03-01T15:56:16;7.80;7.30
21023;DHT22;10669;51.076;3.714;2023-03-01T15:58:43;7.80;1.00
21023;DHT22;10669;51.076;3.714;2023-03-01T16:01:10;7.50;62.60
21023;DHT22;10669;51.076;3.714;2023-03-01T16:03:38;7.40;99.90
21023;DHT22;10669;51.076;3.714;2023-03-01T16:06:03;7.50;99.90
21023;DHT22;10669;51.076;3.714;2023-03-01T16:08:29;7.40;99.90
21023;DHT22;10669;51.076;3.714;2023-03-01T16:10:55;7.30;99.90
21023;DHT22;10669;51.076;3.714;2023-03-01T16:13:21;7.00;99.90
21023;DHT22;10669;51.076;3.714;2023-03-01T16:15:47;6.90;99.90
21023;DHT22;10669;51.076;3.714;2023-03-01T16:18:13;6.90;99.90
21023;DHT22;10669;51.076;3.714;2023-03-01T16:20:39;7.10;99.90
21023;DHT22;10669;51.076;3.714;2023-03-01T16:23:06;7.00;99.90
21023;DHT22;10669;51.076;3.714;2023-03-01T16:25:32;6.90;1.00
21023;DHT22;10669;51.076;3.714;2023-03-01T16:27:59;6.90;1.00
21023;DHT22;10669;51.076;3.714;2023-03-01T16:30:29;6.90;1.00
21023;DHT22;10669;51.076;3.714;2023-03-01T16:32:54;6.80;72.70
21023;DHT22;10669;51.076;3.714;2023-03-01T16:35:21;6.80;1.00
21023;DHT22;10669;51.076;3.714;2023-03-01T16:37:49;6.70;1.00
21023;DHT22;10669;51.076;3.714;2023-03-01T16:40:19;6.70;1.00
21023;DHT22;10669;51.076;3.714;2023-03-01T16:42:49;6.60;1.00
21023;DHT22;10669;51.076;3.714;2023-03-01T16:45:15;6.50;1.00
21023;DHT22;10669;51.076;3.714;2023-03-01T16:47:42;6.50;1.00
21023;DHT22;10669;51.076;3.714;2023-03-01T16:50:08;6.50;1.00
21023;DHT22;10669;51.076;3.714;2023-03-01T16:52:33;6.40;1.00
21023;DHT22;10669;51.076;3.714;2023-03-01T16:54:59;6.30;1.00
21023;DHT22;10669;51.076;3.714;2023-03-01T16:57:26;6.30;1.00
21023;DHT22;10669;51.076;3.714;2023-03-01T16:59:57;6.30;1.00
21023;DHT22;10669;51.076;3.714;2023-03-01T17:02:23;6.30;1.00
21023;DHT22;10669;51.076;3.714;2023-03-01T17:04:52;6.20;99.90
21023;DHT22;10669;51.076;3.714;2023-03-01T17:07:18;6.20;99.90
21023;DHT22;10669;51.076;3.714;2023-03-01T17:09:46;6.10;1.00
21023;DHT22;10669;51.076;3.714;2023-03-01T17:12:13;6.00;99.90
21023;DHT22;10669;51.076;3.714;2023-03-01T17:14:40;6.10;25.90
21023;DHT22;10669;51.076;3.714;2023-03-01T17:17:08;6.10;1.00
21023;DHT22;10669;51.076;3.714;2023-03-01T17:19:33;6.00;1.00
21023;DHT22;10669;51.076;3.714;2023-03-01T17:22:01;6.00;1.00
21023;DHT22;10669;51.076;3.714;2023-03-01T17:24:27;5.90;1.00
21023;DHT22;10669;51.076;3.714;2023-03-01T17:26:53;5.80;1.00
21023;DHT22;10669;51.076;3.714;2023-03-01T17:29:19;5.70;1.00
21023;DHT22;10669;51.076;3.714;2023-03-01T17:31:45;5.70;1.00
21023;DHT22;10669;51.076;3.714;2023-03-01T17:34:11;5.60;1.00
21023;DHT22;10669;51.076;3.714;2023-03-01T17:36:36;5.50;99.90
21023;DHT22;10669;51.076;3.714;2023-03-01T17:39:10;5.60;27.80
21023;DHT22;10669;51.076;3.714;2023-03-01T17:41:36;5.50;99.90
21023;DHT22;10669;51.076;3.714;2023-03-01T17:44:04;5.40;99.90
21023;DHT22;10669;51.076;3.714;2023-03-01T17:46:29;5.40;99.90
21023;DHT22;10669;51.076;3.714;2023-03-01T17:48:56;5.30;99.90
21023;DHT22;10669;51.076;3.714;2023-03-01T17:51:21;5.40;99.90
21023;DHT22;10669;51.076;3.714;2023-03-01T17:53:48;5.30;99.90
21023;DHT22;10669;51.076;3.714;2023-03-01T17:56:15;5.20;1.00
21023;DHT22;10669;51.076;3.714;2023-03-01T17:58:43;5.20;1.00
21023;DHT22;10669;51.076;3.714;2023-03-01T18:01:12;5.20;1.00
21023;DHT22;10669;51.076;3.714;2023-03-01T18:03:39;5.20;1.00
21023;DHT22;10669;51.076;3.714;2023-03-01T18:09:01;5.10;1.00
21023;DHT22;10669;51.076;3.714;2023-03-01T18:11:28;5.10;1.00
21023;DHT22;10669;51.076;3.714;2023-03-01T18:13:54;5.10;1.00
21023;DHT22;10669;51.076;3.714;2023-03-01T18:16:22;5.10;99.90
21023;DHT22;10669;51.076;3.714;2023-03-01T18:18:53;5.00;1.00
21023;DHT22;10669;51.076;3.714;2023-03-01T18:21:19;5.00;1.00
21023;DHT22;10669;51.076;3.714;2023-03-01T18:23:46;4.90;1.00
21023;DHT22;10669;51.076;3.714;2023-03-01T18:26:12;4.80;1.00
21023;DHT22;10669;51.076;3.714;2023-03-01T18:28:43;4.80;1.00
21023;DHT22;10669;51.076;3.714;2023-03-01T18:31:12;4.80;1.00
21023;DHT22;10669;51.076;3.714;2023-03-01T18:33:38;4.80;1.00
21023;DHT22;10669;51.076;3.714;2023-03-01T18:36:04;4.80;1.00
21023;DHT22;10669;51.076;3.714;2023-03-01T18:38:30;4.70;1.00
21023;DHT22;10669;51.076;3.714;2023-03-01T18:40:57;4.70;1.00
21023;DHT22;10669;51.076;3.714;2023-03-01T18:43:23;4.70;99.90